sensor_id;sensor_type;location;lat;lon;timestamp;pressure;altitude;pressure_sealevel;temperature;humidity
52745;BME280;38637;49.984;20.426;2023-06-14T00:01:08;99247.34;;;13.35;96.85
52745;BME280;38637;49.984;20.426;2023-06-14T00:03:34;99251.72;;;13.41;96.53
52745;BME280;38637;49.984;20.426;2023-06-14T00:05:59;99251.66;;;13.46;96.45
52745;BME280;38637;49.984;20.426;2023-06-14T00:08:25;99250.28;;;13.48;96.75
52745;BME280;38637;49.984;20.426;2023-06-14T00:10:50;99245.09;;;13.47;97.68
52745;BME280;38637;49.984;20.426;2023-06-14T00:13:16;99249.22;;;13.44;97.96
52745;BME280;38637;49.984;20.426;2023-06-14T00:15:41;99249.22;;;13.44;97.88
52745;BME280;38637;49.984;20.426;2023-06-14T00:18:07;99248.91;;;13.46;97.72
52745;BME280;38637;49.984;20.426;2023-06-14T00:20:32;99245.91;;;13.47;97.82
52745;BME280;38637;49.984;20.426;2023-06-14T00:23:01;99242.06;;;13.43;98.37
52745;BME280;38637;49.984;20.426;2023-06-14T00:25:26;99248.97;;;13.41;98.30
52745;BME280;38637;49.984;20.426;2023-06-14T00:27:52;99245.69;;;13.39;98.02
52745;BME280;38637;49.984;20.426;2023-06-14T00:30:17;99246.81;;;13.32;98.74
52745;BME280;38637;49.984;20.426;2023-06-14T00:32:43;99240.53;;;13.27;99.55
52745;BME280;38637;49.984;20.426;2023-06-14T00:35:09;99242.44;;;13.26;99.52
52745;BME280;38637;49.984;20.426;2023-06-14T00:37:34;99247.09;;;13.21;100.00
52745;BME280;38637;49.984;20.426;2023-06-14T00:40:00;99241.06;;;13.19;100.00
52745;BME280;38637;49.984;20.426;2023-06-14T00:42:26;99235.59;;;13.19;100.00
52745;BME280;38637;49.984;20.426;2023-06-14T00:44:51;99242.75;;;13.15;100.00
52745;BME280;38637;49.984;20.426;2023-06-14T00:47:17;99233.72;;;13.14;100.00
52745;BME280;38637;49.984;20.426;2023-06-14T00:49:42;99234.53;;;13.15;100.00
52745;BME280;38637;49.984;20.426;2023-06-14T00:52:08;99232.34;;;13.17;100.00
52745;BME280;38637;49.984;20.426;2023-06-14T00:54:37;99234.78;;;13.18;100.00
52745;BME280;38637;49.984;20.426;2023-06-14T00:57:02;99226.84;;;13.17;100.00
52745;BME280;38637;49.984;20.426;2023-06-14T00:59:27;99226.31;;;13.15;100.00
52745;BME280;38637;49.984;20.426;2023-06-14T01:01:53;99224.94;;;13.12;100.00
52745;BME280;38637;49.984;20.426;2023-06-14T01:04:18;99217.00;;;13.10;100.00
52745;BME280;38637;49.984;20.426;2023-06-14T01:06:53;99219.47;;;13.07;100.00
52745;BME280;38637;49.984;20.426;2023-06-14T01:12:04;99224.94;;;13.07;100.00
52745;BME280;38637;49.984;20.426;2023-06-14T01:14:31;99222.75;;;13.09;100.00
52745;BME280;38637;49.984;20.426;2023-06-14T01:16:58;99227.44;;;13.08;100.00
52745;BME280;38637;49.984;20.426;2023-06-14T01:19:25;99224.94;;;13.12;100.00
52745;BME280;38637;49.984;20.426;2023-06-14T01:21:51;99218.94;;;13.10;100.00
52745;BME280;38637;49.984;20.426;2023-06-14T01:24:16;99218.09;;;13.09;100.00
52745;BME280;38637;49.984;20.426;2023-06-14T01:26:44;99214.28;;;13.10;100.00
52745;BME280;38637;49.984;20.426;2023-06-14T01:29:10;99212.88;;;13.13;100.00
52745;BME280;38637;49.984;20.426;2023-06-14T01:31:37;99211.22;;;13.12;100.00
52745;BME280;38637;49.984;20.426;2023-06-14T01:34:06;99200.56;;;13.10;100.00
52745;BME280;38637;49.984;20.426;2023-06-14T01:36:31;99202.78;;;13.03;100.00
52745;BME280;38637;49.984;20.426;2023-06-14T01:38:57;99203.63;;;12.99;100.00
52745;BME280;38637;49.984;20.426;2023-06-14T01:41:23;99203.63;;;12.99;100.00
52745;BME280;38637;49.984;20.426;2023-06-14T01:43:49;99200.59;;;13.00;100.00
52745;BME280;38637;49.984;20.426;2023-06-14T01:46:15;99198.66;;;13.01;100.00
52745;BME280;38637;49.984;20.426;2023-06-14T01:48:41;99200.06;;;12.98;100.00
52745;BME280;38637;49.984;20.426;2023-06-14T01:51:06;99197.59;;;12.97;100.00
52745;BME280;38637;49.984;20.426;2023-06-14T01:53:31;99197.59;;;12.97;100.00
52745;BME280;38637;49.984;20.426;2023-06-14T01:55:56;99196.78;;;12.96;100.00
52745;BME280;38637;49.984;20.426;2023-06-14T01:58:22;99194.31;;;12.95;100.00
52745;BME280;38637;49.984;20.426;2023-06-14T02:00:48;99190.75;;;12.94;100.00
52745;BME280;38637;49.984;20.426;2023-06-14T02:03:14;99197.34;;;12.98;100.00
52745;BME280;38637;49.984;20.426;2023-06-14T02:05:40;99198.16;;;12.99;100.00
52745;BME280;38637;49.984;20.426;2023-06-14T02:08:06;99197.59;;;12.97;100.00
52745;BME280;38637;49.984;20.426;2023-06-14T02:10:31;99195.16;;;12.95;100.00
52745;BME280;38637;49.984;20.426;2023-06-14T02:12:56;99200.63;;;12.95;100.00
52745;BME280;38637;49.984;20.426;2023-06-14T02:15:21;99197.06;;;12.95;100.00
52745;BME280;38637;49.984;20.426;2023-06-14T02:17:48;99203.09;;;12.97;100.00
52745;BME280;38637;49.984;20.426;2023-06-14T02:20:14;99198.97;;;12.99;100.00
52745;BME280;38637;49.984;20.426;2023-06-14T02:22:39;99200.31;;;13.02;100.00
52745;BME280;38637;49.984;20.426;2023-06-14T02:25:04;99187.97;;;13.04;100.00
52745;BME280;38637;49.984;20.426;2023-06-14T02:27:31;99198.41;;;13.02;100.00
52745;BME280;38637;49.984;20.426;2023-06-14T02:29:56;99193.75;;;12.98;100.00
52745;BME280;38637;49.984;20.426;2023-06-14T02:32:21;99195.69;;;12.97;100.00
52745;BME280;38637;49.984;20.426;2023-06-14T02:34:47;99192.66;;;12.99;100.00
52745;BME280;38637;49.984;20.426;2023-06-14T02:37:15;99198.97;;;12.99;100.00
52745;BME280;38637;49.984;20.426;2023-06-14T02:39:40;99200.91;;;12.94;100.00
52745;BME280;38637;49.984;20.426;2023-06-14T02:42:06;99199.53;;;12.91;100.00
52745;BME280;38637;49.984;20.426;2023-06-14T02:44:31;99203.94;;;12.92;100.00
52745;BME280;38637;49.984;20.426;2023-06-14T02:46:57;99207.19;;;12.94;100.00
52745;BME280;38637;49.984;20.426;2023-06-14T02:49:23;99201.19;;;12.92;100.00
52745;BME280;38637;49.984;20.426;2023-06-14T02:51:48;99202.56;;;12.90;100.00
52745;BME280;38637;49.984;20.426;2023-06-14T02:54:14;99199.84;;;12.90;100.00
52745;BME280;38637;49.984;20.426;2023-06-14T02:56:39;99195.16;;;12.90;100.00
52745;BME280;38637;49.984;20.426;2023-06-14T02:59:05;99199.78;;;12.95;100.00
52745;BME280;38637;49.984;20.426;2023-06-14T03:01:31;99193.25;;;12.91;100.00
52745;BME280;38637;49.984;20.426;2023-06-14T03:03:59;99198.72;;;12.91;100.00
52745;BME280;38637;49.984;20.426;2023-06-14T03:06:24;99196.81;;;12.91;100.00
52745;BME280;38637;49.984;20.426;2023-06-14T03:08:50;99194.34;;;12.90;100.00
52745;BME280;38637;49.984;20.426;2023-06-14T03:11:15;99202.03;;;12.87;100.00
52745;BME280;38637;49.984;20.426;2023-06-14T03:13:42;99206.94;;;12.91;100.00
52745;BME280;38637;49.984;20.426;2023-06-14T03:16:08;99202.31;;;12.86;100.00
52745;BME280;38637;49.984;20.426;2023-06-14T03:18:34;99194.66;;;12.83;100.00
52745;BME280;38637;49.984;20.426;2023-06-14T03:21:00;99199.31;;;12.82;100.00
52745;BME280;38637;49.984;20.426;2023-06-14T03:23:26;99202.91;;;12.78;100.00
52745;BME280;38637;49.984;20.426;2023-06-14T03:25:51;99200.72;;;12.75;100.00
52745;BME280;38637;49.984;20.426;2023-06-14T03:28:16;99204.84;;;12.72;100.00
52745;BME280;38637;49.984;20.426;2023-06-14T03:30:42;99196.59;;;12.77;100.00
52745;BME280;38637;49.984;20.426;2023-06-14T03:33:07;99197.66;;;12.81;100.00
52745;BME280;38637;49.984;20.426;2023-06-14T03:35:33;99201.53;;;12.80;100.00
52745;BME280;38637;49.984;20.426;2023-06-14T03:37:58;99199.31;;;12.82;100.00
52745;BME280;38637;49.984;20.426;2023-06-14T03:40:23;99204.22;;;12.85;100.00
52745;BME280;38637;49.984;20.426;2023-06-14T03:42:55;99201.22;;;12.87;100.00
52745;BME280;38637;49.984;20.426;2023-06-14T03:45:20;99197.66;;;12.86;100.00
52745;BME280;38637;49.984;20.426;2023-06-14T03:47:46;99199.28;;;12.87;100.00
52745;BME280;38637;49.984;20.426;2023-06-14T03:50:11;99203.66;;;12.88;100.00
52745;BME280;38637;49.984;20.426;2023-06-14T03:52:36;99202.56;;;12.90;100.00
52745;BME280;38637;49.984;20.426;2023-06-14T03:55:01;99203.13;;;12.86;100.00
52745;BME280;38637;49.984;20.426;2023-06-14T03:57:27;99201.22;;;12.87;100.00
52745;BME280;38637;49.984;20.426;2023-06-14T03:59:52;99205.59;;;12.88;100.00
52745;BME280;38637;49.984;20.426;2023-06-14T04:02:18;99208.06;;;12.90;100.00
52745;BME280;38637;49.984;20.426;2023-06-14T04:04:44;99200.09;;;12.93;100.00
52745;BME280;38637;49.984;20.426;2023-06-14T04:07:13;99210.75;;;13.00;100.00
52745;BME280;38637;49.984;20.426;2023-06-14T04:09:39;99208.56;;;13.02;100.00
52745;BME280;38637;49.984;20.426;2023-06-14T04:12:04;99206.06;;;13.00;100.00
52745;BME280;38637;49.984;20.426;2023-06-14T04:14:30;99216.47;;;13.03;100.00
52745;BME280;38637;49.984;20.426;2023-06-14T04:16:55;99211.81;;;13.04;100.00
52745;BME280;38637;49.984;20.426;2023-06-14T04:19:21;99215.66;;;13.03;100.00
52745;BME280;38637;49.984;20.426;2023-06-14T04:21:46;99214.03;;;13.02;100.00
52745;BME280;38637;49.984;20.426;2023-06-14T04:24:11;99214.53;;;13.09;100.00
52745;BME280;38637;49.984;20.426;2023-06-14T04:26:48;99211.78;;;13.09;100.00
52745;BME280;38637;49.984;20.426;2023-06-14T04:29:14;99216.19;;;13.10;100.00
52745;BME280;38637;49.984;20.426;2023-06-14T04:31:41;99214.53;;;13.09;100.00
52745;BME280;38637;49.984;20.426;2023-06-14T04:34:07;99218.94;;;13.10;100.00
52745;BME280;38637;49.984;20.426;2023-06-14T04:36:32;99217.25;;;13.14;100.00
52745;BME280;38637;49.984;20.426;2023-06-14T04:38:59;99220.00;;;13.14;100.00
52745;BME280;38637;49.984;20.426;2023-06-14T04:41:25;99213.72;;;13.14;100.00
52745;BME280;38637;49.984;20.426;2023-06-14T04:43:56;99213.13;;;13.17;100.00
52745;BME280;38637;49.984;20.426;2023-06-14T04:46:22;99217.25;;;13.19;100.00
52745;BME280;38637;49.984;20.426;2023-06-14T04:48:47;99219.94;;;13.24;100.00
52745;BME280;38637;49.984;20.426;2023-06-14T04:51:12;99213.09;;;13.27;100.00
52745;BME280;38637;49.984;20.426;2023-06-14T04:53:38;99220.50;;;13.31;100.00
52745;BME280;38637;49.984;20.426;2023-06-14T04:56:03;99216.09;;;13.30;100.00
52745;BME280;38637;49.984;20.426;2023-06-14T04:58:29;99219.94;;;13.29;100.00
52745;BME280;38637;49.984;20.426;2023-06-14T05:00:54;99214.75;;;13.23;100.00
52745;BME280;38637;49.984;20.426;2023-06-14T05:03:21;99217.25;;;13.14;100.00
52745;BME280;38637;49.984;20.426;2023-06-14T05:05:46;99217.00;;;13.10;100.00
52745;BME280;38637;49.984;20.426;2023-06-14T05:08:12;99212.88;;;13.13;100.00
52745;BME280;38637;49.984;20.426;2023-06-14T05:10:37;99208.16;;;13.19;100.00
52745;BME280;38637;49.984;20.426;2023-06-14T05:13:03;99215.31;;;13.20;100.00
52745;BME280;38637;49.984;20.426;2023-06-14T05:15:28;99217.81;;;13.16;100.00
52745;BME280;38637;49.984;20.426;2023-06-14T05:17:54;99225.50;;;13.14;100.00
52745;BME280;38637;49.984;20.426;2023-06-14T05:20:21;99217.84;;;13.06;100.00
52745;BME280;38637;49.984;20.426;2023-06-14T05:22:47;99232.09;;;13.03;100.00
52745;BME280;38637;49.984;20.426;2023-06-14T05:25:15;99225.00;;;13.02;100.00
52745;BME280;38637;49.984;20.426;2023-06-14T05:27:40;99226.91;;;13.01;100.00
52745;BME280;38637;49.984;20.426;2023-06-14T05:30:06;99235.72;;;12.98;100.00
52745;BME280;38637;49.984;20.426;2023-06-14T05:32:32;99229.94;;;13.00;100.00
52745;BME280;38637;49.984;20.426;2023-06-14T05:34:57;99233.47;;;13.00;100.00
52745;BME280;38637;49.984;20.426;2023-06-14T05:37:22;99238.44;;;12.98;100.00
52745;BME280;38637;49.984;20.426;2023-06-14T05:39:47;99239.22;;;13.04;100.00
52745;BME280;38637;49.984;20.426;2023-06-14T05:42:13;99237.28;;;13.09;100.00
52745;BME280;38637;49.984;20.426;2023-06-14T05:44:38;99248.22;;;13.15;100.00
52745;BME280;38637;49.984;20.426;2023-06-14T05:47:03;99240.81;;;13.15;100.00
52745;BME280;38637;49.984;20.426;2023-06-14T05:49:28;99240.25;;;13.18;100.00
52745;BME280;38637;49.984;20.426;2023-06-14T05:51:54;99248.22;;;13.25;100.00
52745;BME280;38637;49.984;20.426;2023-06-14T05:54:19;99248.75;;;13.27;100.00
52745;BME280;38637;49.984;20.426;2023-06-14T05:56:44;99243.25;;;13.27;100.00
52745;BME280;38637;49.984;20.426;2023-06-14T05:59:09;99245.72;;;13.23;100.00
52745;BME280;38637;49.984;20.426;2023-06-14T06:01:34;99246.84;;;13.22;100.00
52745;BME280;38637;49.984;20.426;2023-06-14T06:04:01;99241.34;;;13.22;100.00
52745;BME280;38637;49.984;20.426;2023-06-14T06:06:26;99248.47;;;13.23;100.00
52745;BME280;38637;49.984;20.426;2023-06-14T06:08:52;99241.91;;;13.19;100.00
52745;BME280;38637;49.984;20.426;2023-06-14T06:11:17;99246.28;;;13.20;100.00
52745;BME280;38637;49.984;20.426;2023-06-14T06:13:43;99248.47;;;13.23;100.00
52745;BME280;38637;49.984;20.426;2023-06-14T06:16:08;99252.59;;;13.21;100.00
52745;BME280;38637;49.984;20.426;2023-06-14T06:18:33;99250.16;;;13.14;100.00
52745;BME280;38637;49.984;20.426;2023-06-14T06:20:59;99248.53;;;13.13;100.00
52745;BME280;38637;49.984;20.426;2023-06-14T06:23:24;99256.19;;;13.16;100.00
52745;BME280;38637;49.984;20.426;2023-06-14T06:25:49;99253.94;;;13.23;100.00
52745;BME280;38637;49.984;20.426;2023-06-14T06:28:15;99261.06;;;13.24;100.00
52745;BME280;38637;49.984;20.426;2023-06-14T06:30:40;99259.44;;;13.23;100.00
52745;BME280;38637;49.984;20.426;2023-06-14T06:33:06;99250.94;;;13.25;100.00
52745;BME280;38637;49.984;20.426;2023-06-14T06:35:31;99256.72;;;13.28;100.00
52745;BME280;38637;49.984;20.426;2023-06-14T06:37:58;99258.31;;;13.35;100.00
52745;BME280;38637;49.984;20.426;2023-06-14T06:40:23;99267.63;;;13.39;100.00
52745;BME280;38637;49.984;20.426;2023-06-14T06:42:48;99262.38;;;13.42;100.00
52745;BME280;38637;49.984;20.426;2023-06-14T06:45:15;99272.28;;;13.38;100.00
52745;BME280;38637;49.984;20.426;2023-06-14T06:47:40;99264.06;;;13.38;100.00
52745;BME280;38637;49.984;20.426;2023-06-14T06:50:05;99267.84;;;13.47;100.00
52745;BME280;38637;49.984;20.426;2023-06-14T06:52:32;99256.81;;;13.57;100.00
52745;BME280;38637;49.984;20.426;2023-06-14T06:54:57;99263.91;;;13.59;100.00
52745;BME280;38637;49.984;20.426;2023-06-14T06:57:23;99273.00;;;13.59;100.00
52745;BME280;38637;49.984;20.426;2023-06-14T06:59:48;99270.75;;;13.66;100.00
52745;BME280;38637;49.984;20.426;2023-06-14T07:02:14;99280.59;;;13.67;100.00
52745;BME280;38637;49.984;20.426;2023-06-14T07:04:39;99274.28;;;13.72;100.00
52745;BME280;38637;49.984;20.426;2023-06-14T07:07:05;99272.06;;;13.74;100.00
52745;BME280;38637;49.984;20.426;2023-06-14T07:09:30;99281.41;;;13.68;100.00
52745;BME280;38637;49.984;20.426;2023-06-14T07:11:55;99271.28;;;13.68;100.00
52745;BME280;38637;49.984;20.426;2023-06-14T07:14:20;99280.59;;;13.67;100.00
52745;BME280;38637;49.984;20.426;2023-06-14T07:16:47;99283.09;;;13.69;100.00
52745;BME280;38637;49.984;20.426;2023-06-14T07:19:14;99283.59;;;13.71;100.00
52745;BME280;38637;49.984;20.426;2023-06-14T07:21:39;99279.78;;;13.72;100.00
52745;BME280;38637;49.984;20.426;2023-06-14T07:24:05;99292.09;;;13.74;100.00
52745;BME280;38637;49.984;20.426;2023-06-14T07:26:31;99282.50;;;13.72;100.00
52745;BME280;38637;49.984;20.426;2023-06-14T07:28:57;99292.06;;;13.79;100.00
52745;BME280;38637;49.984;20.426;2023-06-14T07:31:22;99293.38;;;13.87;100.00
52745;BME280;38637;49.984;20.426;2023-06-14T07:33:47;99295.22;;;13.97;100.00
52745;BME280;38637;49.984;20.426;2023-06-14T07:36:12;99294.34;;;14.07;100.00
52745;BME280;38637;49.984;20.426;2023-06-14T07:38:37;99299.56;;;14.08;100.00
52745;BME280;38637;49.984;20.426;2023-06-14T07:41:03;99294.56;;;14.10;100.00
52745;BME280;38637;49.984;20.426;2023-06-14T07:43:28;99300.00;;;14.20;100.00
52745;BME280;38637;49.984;20.426;2023-06-14T07:45:53;99307.53;;;14.39;100.00
52745;BME280;38637;49.984;20.426;2023-06-14T07:48:19;99292.66;;;14.45;100.00
52745;BME280;38637;49.984;20.426;2023-06-14T07:50:44;99302.56;;;14.41;100.00
52745;BME280;38637;49.984;20.426;2023-06-14T07:53:09;99303.66;;;14.40;100.00
52745;BME280;38637;49.984;20.426;2023-06-14T07:55:34;99303.19;;;14.33;100.00
52745;BME280;38637;49.984;20.426;2023-06-14T07:58:02;99306.56;;;14.24;100.00
52745;BME280;38637;49.984;20.426;2023-06-14T08:00:27;99308.25;;;14.20;100.00
52745;BME280;38637;49.984;20.426;2023-06-14T08:02:53;99310.13;;;14.20;100.00
52745;BME280;38637;49.984;20.426;2023-06-14T08:05:23;99311.00;;;14.20;100.00
52745;BME280;38637;49.984;20.426;2023-06-14T08:07:48;99313.97;;;14.24;100.00
52745;BME280;38637;49.984;20.426;2023-06-14T08:10:14;99300.50;;;14.22;100.00
52745;BME280;38637;49.984;20.426;2023-06-14T08:12:39;99303.25;;;14.22;100.00
52745;BME280;38637;49.984;20.426;2023-06-14T08:15:04;99302.19;;;14.23;100.00
52745;BME280;38637;49.984;20.426;2023-06-14T08:17:30;99310.41;;;14.23;100.00
52745;BME280;38637;49.984;20.426;2023-06-14T08:19:55;99301.09;;;14.19;100.00
52745;BME280;38637;49.984;20.426;2023-06-14T08:22:22;99305.53;;;14.15;100.00
52745;BME280;38637;49.984;20.426;2023-06-14T08:24:47;99307.22;;;14.11;100.00
52745;BME280;38637;49.984;20.426;2023-06-14T08:27:12;99302.28;;;14.08;100.00
52745;BME280;38637;49.984;20.426;2023-06-14T08:29:38;99304.50;;;14.06;100.00
52745;BME280;38637;49.984;20.426;2023-06-14T08:32:05;99307.00;;;14.02;100.00
52745;BME280;38637;49.984;20.426;2023-06-14T08:34:30;99310.06;;;13.96;100.00
52745;BME280;38637;49.984;20.426;2023-06-14T08:36:55;99311.72;;;13.92;100.00
52745;BME280;38637;49.984;20.426;2023-06-14T08:39:21;99310.94;;;13.86;100.00
52745;BME280;38637;49.984;20.426;2023-06-14T08:41:47;99321.66;;;13.83;100.00
52745;BME280;38637;49.984;20.426;2023-06-14T08:44:16;99319.47;;;13.85;100.00
52745;BME280;38637;49.984;20.426;2023-06-14T08:46:41;99318.94;;;13.83;100.00
52745;BME280;38637;49.984;20.426;2023-06-14T08:49:07;99312.34;;;13.84;100.00
52745;BME280;38637;49.984;20.426;2023-06-14T08:51:33;99319.47;;;13.85;100.00
52745;BME280;38637;49.984;20.426;2023-06-14T08:54:01;99309.81;;;13.92;100.00
52745;BME280;38637;49.984;20.426;2023-06-14T08:56:29;99318.31;;;13.96;100.00
52745;BME280;38637;49.984;20.426;2023-06-14T08:58:55;99318.81;;;13.98;100.00
52745;BME280;38637;49.984;20.426;2023-06-14T09:01:21;99319.91;;;14.02;100.00
52745;BME280;38637;49.984;20.426;2023-06-14T09:03:47;99328.91;;;14.08;100.00
52745;BME280;38637;49.984;20.426;2023-06-14T09:06:13;99333.25;;;14.14;100.00
52745;BME280;38637;49.984;20.426;2023-06-14T09:08:45;99329.94;;;14.17;100.00
52745;BME280;38637;49.984;20.426;2023-06-14T09:11:11;99332.69;;;14.17;100.00
52745;BME280;38637;49.984;20.426;2023-06-14T09:13:37;99328.63;;;14.14;100.00
52745;BME280;38637;49.984;20.426;2023-06-14T09:16:03;99328.91;;;14.08;100.00
52745;BME280;38637;49.984;20.426;2023-06-14T09:18:42;99327.03;;;14.03;100.00
52745;BME280;38637;49.984;20.426;2023-06-14T09:21:12;99330.34;;;14.00;100.00
52745;BME280;38637;49.984;20.426;2023-06-14T09:23:42;99333.66;;;13.97;100.00
52745;BME280;38637;49.984;20.426;2023-06-14T09:28:32;99331.97;;;14.06;100.00
52745;BME280;38637;49.984;20.426;2023-06-14T09:30:57;99338.25;;;14.12;100.00
52745;BME280;38637;49.984;20.426;2023-06-14T09:33:22;99331.88;;;14.16;100.00
52745;BME280;38637;49.984;20.426;2023-06-14T09:35:51;99328.28;;;14.21;100.00
52745;BME280;38637;49.984;20.426;2023-06-14T09:38:16;99328.03;;;14.17;100.00
52745;BME280;38637;49.984;20.426;2023-06-14T09:40:42;99327.78;;;14.14;100.00
52745;BME280;38637;49.984;20.426;2023-06-14T09:43:07;99325.31;;;14.12;100.00
52745;BME280;38637;49.984;20.426;2023-06-14T09:45:35;99326.69;;;14.15;100.00
52745;BME280;38637;49.984;20.426;2023-06-14T09:48:01;99329.09;;;14.21;100.00
52745;BME280;38637;49.984;20.426;2023-06-14T09:50:27;99337.56;;;14.30;100.00
52745;BME280;38637;49.984;20.426;2023-06-14T09:52:52;99327.28;;;14.41;100.00
52745;BME280;38637;49.984;20.426;2023-06-14T09:55:18;99334.09;;;14.48;100.00
52745;BME280;38637;49.984;20.426;2023-06-14T09:57:43;99327.25;;;14.51;100.00
52745;BME280;38637;49.984;20.426;2023-06-14T10:00:10;99334.38;;;14.52;100.00
52745;BME280;38637;49.984;20.426;2023-06-14T10:02:37;99331.34;;;14.48;100.00
52745;BME280;38637;49.984;20.426;2023-06-14T10:05:05;99326.38;;;14.51;100.00
52745;BME280;38637;49.984;20.426;2023-06-14T10:07:42;99328.00;;;14.57;100.00
52745;BME280;38637;49.984;20.426;2023-06-14T10:10:09;99328.50;;;14.64;100.00
52745;BME280;38637;49.984;20.426;2023-06-14T10:12:34;99336.94;;;14.73;100.00
52745;BME280;38637;49.984;20.426;2023-06-14T10:15:00;99334.59;;;14.85;100.00
52745;BME280;38637;49.984;20.426;2023-06-14T10:17:33;99331.16;;;14.98;100.00
52745;BME280;38637;49.984;20.426;2023-06-14T10:20:07;99327.84;;;15.25;100.00
52745;BME280;38637;49.984;20.426;2023-06-14T10:22:38;99327.72;;;15.54;100.00
52745;BME280;38637;49.984;20.426;2023-06-14T10:25:07;99326.94;;;15.73;100.00
52745;BME280;38637;49.984;20.426;2023-06-14T10:27:37;99327.13;;;15.81;100.00
52745;BME280;38637;49.984;20.426;2023-06-14T10:30:02;99329.94;;;15.95;100.00
52745;BME280;38637;49.984;20.426;2023-06-14T10:32:27;99326.28;;;16.19;100.00
52745;BME280;38637;49.984;20.426;2023-06-14T10:34:54;99325.72;;;16.36;99.30
52745;BME280;38637;49.984;20.426;2023-06-14T10:37:20;99333.81;;;16.46;97.42
52745;BME280;38637;49.984;20.426;2023-06-14T10:39:46;99325.59;;;16.60;96.36
52745;BME280;38637;49.984;20.426;2023-06-14T10:42:11;99333.53;;;16.80;95.89
52745;BME280;38637;49.984;20.426;2023-06-14T10:47:04;99335.00;;;17.19;91.07
52745;BME280;38637;49.984;20.426;2023-06-14T10:52:07;99331.81;;;17.53;90.20
52745;BME280;38637;49.984;20.426;2023-06-14T10:54:36;99338.56;;;17.61;90.57
52745;BME280;38637;49.984;20.426;2023-06-14T10:57:01;99333.47;;;17.54;86.62
52745;BME280;38637;49.984;20.426;2023-06-14T10:59:27;99329.25;;;17.57;87.41
52745;BME280;38637;49.984;20.426;2023-06-14T11:04:17;99328.38;;;17.98;86.36
52745;BME280;38637;49.984;20.426;2023-06-14T11:06:49;99332.78;;;18.21;85.48
52745;BME280;38637;49.984;20.426;2023-06-14T11:11:57;99328.16;;;18.53;84.35
52745;BME280;38637;49.984;20.426;2023-06-14T11:14:23;99317.59;;;18.55;84.17
52745;BME280;38637;49.984;20.426;2023-06-14T11:16:48;99314.50;;;18.56;84.15
52745;BME280;38637;49.984;20.426;2023-06-14T11:19:14;99322.44;;;18.49;83.79
52745;BME280;38637;49.984;20.426;2023-06-14T11:21:40;99329.84;;;18.40;84.25
52745;BME280;38637;49.984;20.426;2023-06-14T11:24:09;99317.09;;;18.30;83.40
52745;BME280;38637;49.984;20.426;2023-06-14T11:26:37;99328.84;;;18.13;82.48
52745;BME280;38637;49.984;20.426;2023-06-14T11:29:02;99317.63;;;17.96;82.60
52745;BME280;38637;49.984;20.426;2023-06-14T11:31:27;99322.25;;;17.87;82.79
52745;BME280;38637;49.984;20.426;2023-06-14T11:33:56;99312.16;;;17.82;82.93
52745;BME280;38637;49.984;20.426;2023-06-14T11:36:22;99302.72;;;17.97;82.65
52745;BME280;38637;49.984;20.426;2023-06-14T11:38:48;99305.16;;;17.99;81.74
52745;BME280;38637;49.984;20.426;2023-06-14T11:41:13;99307.34;;;18.10;82.44
52745;BME280;38637;49.984;20.426;2023-06-14T11:43:39;99300.50;;;18.30;82.59
52745;BME280;38637;49.984;20.426;2023-06-14T11:46:04;99290.25;;;18.53;81.11
52745;BME280;38637;49.984;20.426;2023-06-14T11:48:42;99289.50;;;18.93;79.15
52745;BME280;38637;49.984;20.426;2023-06-14T11:51:07;99290.03;;;19.03;77.24
52745;BME280;38637;49.984;20.426;2023-06-14T11:53:32;99295.50;;;19.26;75.56
52745;BME280;38637;49.984;20.426;2023-06-14T11:55:58;99299.59;;;19.46;73.26
52745;BME280;38637;49.984;20.426;2023-06-14T11:58:23;99281.88;;;19.47;74.81
52745;BME280;38637;49.984;20.426;2023-06-14T12:00:49;99287.22;;;19.43;75.55
52745;BME280;38637;49.984;20.426;2023-06-14T12:03:14;99285.75;;;19.46;74.67
52745;BME280;38637;49.984;20.426;2023-06-14T12:05:39;99284.59;;;19.29;75.19
52745;BME280;38637;49.984;20.426;2023-06-14T12:08:04;99286.22;;;19.31;76.42
52745;BME280;38637;49.984;20.426;2023-06-14T12:10:39;99282.78;;;19.34;76.71
52745;BME280;38637;49.984;20.426;2023-06-14T12:13:05;99290.63;;;19.32;75.92
52745;BME280;38637;49.984;20.426;2023-06-14T12:15:31;99289.66;;;19.45;74.56
52745;BME280;38637;49.984;20.426;2023-06-14T12:17:57;99285.28;;;19.52;72.76
52745;BME280;38637;49.984;20.426;2023-06-14T12:20:22;99293.78;;;19.56;71.79
52745;BME280;38637;49.984;20.426;2023-06-14T12:22:55;99297.41;;;19.83;72.54
52745;BME280;38637;49.984;20.426;2023-06-14T12:25:34;99288.09;;;20.05;71.92
52745;BME280;38637;49.984;20.426;2023-06-14T12:28:06;99294.00;;;20.20;70.65
52745;BME280;38637;49.984;20.426;2023-06-14T12:30:32;99297.38;;;20.61;68.52
52745;BME280;38637;49.984;20.426;2023-06-14T12:32:57;99293.44;;;20.44;66.34
52745;BME280;38637;49.984;20.426;2023-06-14T12:35:23;99298.19;;;20.61;68.20
52745;BME280;38637;49.984;20.426;2023-06-14T12:37:48;99285.34;;;20.13;68.12
52745;BME280;38637;49.984;20.426;2023-06-14T12:40:13;99291.03;;;19.73;69.49
52745;BME280;38637;49.984;20.426;2023-06-14T12:42:39;99286.81;;;19.76;69.63
52745;BME280;38637;49.984;20.426;2023-06-14T12:45:05;99287.94;;;19.92;68.96
52745;BME280;38637;49.984;20.426;2023-06-14T12:47:30;99296.44;;;20.22;69.98
52745;BME280;38637;49.984;20.426;2023-06-14T12:49:56;99292.19;;;20.33;68.54
52745;BME280;38637;49.984;20.426;2023-06-14T12:52:21;99286.63;;;20.25;68.43